Time;durP1;ratioP1;P1;durP2;ratioP2;P2;SDS_P1;SDS_P2;PMS_P1;PMS_P2;Temp;Humidity;BMP_temperature;BMP_pressure;BME280_temperature;BME280_humidity;BME280_pressure;Samples;Min_cycle;Max_cycle;Signal;HPM_P1;HPM_P2
2020/12/12 00:00:27;;;;;;;20.85;5.20;;;;;;;11.08;79.71;98704.38;4997267;28;20050;-70
2020/12/12 00:02:53;;;;;;;17.27;4.57;;;;;;;11.21;78.44;98706.59;4979944;28;20050;-73
2020/12/12 00:05:20;;;;;;;20.20;4.55;;;;;;;11.30;77.94;98701.63;4993889;28;20058;-73
2020/12/12 00:07:47;;;;;;;25.63;5.85;;;;;;;11.24;78.00;98708.59;4995361;28;20050;-63
2020/12/12 00:10:14;;;;;;;18.40;4.60;;;;;;;11.16;78.46;98704.13;4994899;28;20046;-66
2020/12/12 00:12:42;;;;;;;21.35;4.80;;;;;;;11.06;78.53;98706.69;4995437;28;20050;-70
2020/12/12 00:15:09;;;;;;;16.77;4.10;;;;;;;10.98;78.84;98708.50;4995214;28;20050;-63
2020/12/12 00:17:36;;;;;;;22.98;5.18;;;;;;;11.28;78.15;98706.72;4994340;28;20529;-73
2020/12/12 00:20:03;;;;;;;16.27;5.20;;;;;;;11.63;76.80;98703.00;4995316;28;20065;-67
2020/12/12 00:22:30;;;;;;;19.17;5.05;;;;;;;11.22;77.66;98704.63;4995095;28;20057;-71
2020/12/12 00:25:09;;;;;;;17.60;4.38;;;;;;;11.15;77.84;98715.53;4994478;28;20521;-71
2020/12/12 00:27:36;;;;;;;21.90;4.32;;;;;;;11.19;77.86;98713.66;4994553;28;20505;-70
2020/12/12 00:30:05;;;;;;;18.90;4.40;;;;;;;11.09;78.25;98714.22;4994705;28;20062;-70
2020/12/12 00:32:32;;;;;;;19.88;4.82;;;;;;;10.99;77.87;98720.34;4994907;28;20073;-75
2020/12/12 00:34:59;;;;;;;20.02;4.65;;;;;;;10.76;78.83;98717.53;4994543;28;20061;-70
2020/12/12 00:37:25;;;;;;;23.48;4.40;;;;;;;11.05;78.36;98716.13;4994250;28;20065;-71
2020/12/12 00:39:52;;;;;;;20.25;5.43;;;;;;;10.96;78.14;98716.38;4994975;28;20244;-73
2020/12/12 00:42:19;;;;;;;23.23;4.78;;;;;;;11.37;77.56;98716.72;4995629;28;20065;-73
2020/12/12 00:44:47;;;;;;;23.45;5.07;;;;;;;11.26;77.25;98720.06;4979446;28;20051;-74
2020/12/12 00:47:15;;;;;;;23.20;4.70;;;;;;;11.19;77.44;98728.19;4995224;28;20054;-72
2020/12/12 00:49:42;;;;;;;18.77;4.55;;;;;;;10.92;78.21;98729.25;4994650;28;20055;-72
2020/12/12 00:56:38;;;;;;;21.00;5.03;;;;;;;11.15;76.61;98727.34;4978239;28;20057;-67
2020/12/12 00:59:05;;;;;;;22.33;4.47;;;;;;;10.95;78.44;98720.25;4995449;28;20050;-76
2020/12/12 01:01:32;;;;;;;22.10;5.53;;;;;;;11.31;77.37;98725.28;4994429;28;20509;-74
2020/12/12 01:03:59;;;;;;;22.45;4.70;;;;;;;11.05;77.45;98727.94;4996080;28;20517;-74
2020/12/12 01:10:55;;;;;;;19.70;4.75;;;;;;;10.98;78.33;98725.03;4994693;28;20057;-63
2020/12/12 01:13:22;;;;;;;20.90;4.70;;;;;;;11.29;77.58;98729.56;4994651;28;20391;-66
2020/12/12 01:15:49;;;;;;;16.63;4.30;;;;;;;11.18;77.55;98732.13;4993667;28;20054;-68
2020/12/12 01:18:16;;;;;;;19.70;4.30;;;;;;;11.21;77.17;98717.63;4976913;28;20050;-62
2020/12/12 01:25:09;;;;;;;18.45;4.30;;;;;;;11.17;77.42;98736.06;4994293;28;20474;-61
2020/12/12 01:27:36;;;;;;;26.77;5.55;;;;;;;11.10;77.77;98732.38;4994025;28;20054;-65
2020/12/12 01:30:03;;;;;;;21.17;4.13;;;;;;;11.01;77.98;98737.28;4993800;28;20050;-68
2020/12/12 01:32:30;;;;;;;16.67;3.85;;;;;;;11.30;76.79;98734.72;4960630;28;20046;-63
2020/12/12 01:34:57;;;;;;;26.15;5.03;;;;;;;11.12;77.34;98735.56;4975603;28;20050;-69
2020/12/12 01:42:01;;;;;;;22.60;4.25;;;;;;;11.32;77.50;98742.63;4993674;28;20046;-71
2020/12/12 01:44:28;;;;;;;21.75;4.10;;;;;;;11.05;77.35;98749.97;4993257;28;20050;-73
2020/12/12 01:46:57;;;;;;;23.08;4.82;;;;;;;11.03;78.14;98757.03;4993503;28;20055;-68
2020/12/12 01:49:24;;;;;;;20.55;4.25;;;;;;;10.97;77.82;98751.00;4993787;28;20042;-68
2020/12/12 01:51:51;;;;;;;23.25;5.03;;;;;;;11.08;78.07;98762.22;4993609;28;20051;-66
2020/12/12 01:54:19;;;;;;;16.20;4.20;;;;;;;11.28;76.76;98759.09;4993539;28;20057;-66
2020/12/12 01:56:47;;;;;;;16.63;3.92;;;;;;;11.09;77.01;98767.38;4997072;28;20486;-64
2020/12/12 01:59:17;;;;;;;20.05;4.72;;;;;;;10.92;78.36;98765.06;4980345;28;20402;-69
2020/12/12 02:01:46;;;;;;;22.80;4.78;;;;;;;10.75;78.57;98770.22;4976238;28;20442;-62
2020/12/12 02:04:18;;;;;;;22.65;4.53;;;;;;;11.01;77.42;98767.59;4977596;28;20047;-65
2020/12/12 02:06:45;;;;;;;23.33;4.32;;;;;;;10.68;78.66;98775.56;4973140;28;20402;-68
2020/12/12 02:09:15;;;;;;;24.85;5.70;;;;;;;10.51;79.39;98770.47;4978325;28;20054;-68
2020/12/12 02:11:42;;;;;;;18.08;4.85;;;;;;;10.67;79.46;98773.97;4975434;28;20054;-62
2020/12/12 02:14:11;;;;;;;18.13;4.32;;;;;;;10.73;78.59;98778.03;4973969;28;20055;-67
2020/12/12 02:16:54;;;;;;;21.98;4.28;;;;;;;10.76;78.42;98778.09;4974495;28;20517;-68
2020/12/12 02:19:21;;;;;;;22.55;4.80;;;;;;;10.82;78.38;98782.19;4974809;28;20054;-75
2020/12/12 02:21:55;;;;;;;21.15;4.30;;;;;;;10.86;78.61;98788.53;4979237;28;20055;-73
2020/12/12 02:24:23;;;;;;;27.27;5.65;;;;;;;10.73;78.85;98781.59;4984567;28;20051;-77
2020/12/12 02:26:51;;;;;;;19.98;4.20;;;;;;;10.79;78.56;98787.63;4979795;28;20062;-74
2020/12/12 02:29:19;;;;;;;21.70;4.45;;;;;;;10.66;78.90;98791.66;4974420;28;20043;-76
2020/12/12 02:31:45;;;;;;;23.98;4.20;;;;;;;10.62;79.33;98791.56;4974012;28;20047;-76
2020/12/12 02:34:13;;;;;;;21.45;4.70;;;;;;;10.72;78.99;98787.47;4988420;28;20050;-74
2020/12/12 02:36:40;;;;;;;18.70;4.22;;;;;;;10.71;78.44;98797.66;4973997;28;20035;-76
2020/12/12 02:39:10;;;;;;;24.75;5.38;;;;;;;10.78;78.32;98795.06;4973905;28;20050;-69
2020/12/12 02:41:37;;;;;;;24.40;5.05;;;;;;;11.01;77.84;98801.47;4973965;28;20050;-65
2020/12/12 02:44:04;;;;;;;23.92;4.85;;;;;;;10.87;77.72;98801.16;4973980;28;20055;-71
2020/12/12 02:46:30;;;;;;;21.23;4.80;;;;;;;10.73;78.38;98800.88;4975263;28;20051;-71
2020/12/12 02:48:58;;;;;;;19.83;4.72;;;;;;;10.73;78.49;98798.13;4976355;28;20051;-66
2020/12/12 02:51:27;;;;;;;20.70;4.43;;;;;;;10.72;78.67;98801.22;4992227;28;20396;-76
2020/12/12 02:53:53;;;;;;;18.42;4.60;;;;;;;10.67;78.92;98805.06;4978488;28;20055;-73
2020/12/12 02:56:20;;;;;;;17.58;4.05;;;;;;;10.75;78.94;98808.75;4977719;28;20066;-76
2020/12/12 02:58:47;;;;;;;21.17;3.60;;;;;;;10.63;78.58;98811.66;4976021;28;20058;-75
2020/12/12 03:01:16;;;;;;;18.98;4.38;;;;;;;10.60;79.05;98807.66;4987350;28;20406;-62
2020/12/12 03:03:43;;;;;;;20.83;3.97;;;;;;;10.50;79.53;98815.66;4995927;28;20046;-62
2020/12/12 03:06:11;;;;;;;19.52;4.20;;;;;;;10.78;78.43;98813.53;4996817;28;20061;-63
2020/12/12 03:08:38;;;;;;;17.58;4.35;;;;;;;11.03;77.84;98826.69;4996980;28;20058;-64
2020/12/12 03:11:04;;;;;;;20.85;4.18;;;;;;;10.84;78.00;98821.19;4996421;28;20058;-62
2020/12/12 03:13:31;;;;;;;19.90;3.72;;;;;;;10.90;78.22;98811.47;4996851;28;20509;-65
2020/12/12 03:15:58;;;;;;;18.75;3.90;;;;;;;11.05;77.53;98824.34;4996639;28;20119;-67
2020/12/12 03:18:25;;;;;;;23.48;5.07;;;;;;;10.87;77.67;98817.69;4963107;28;20394;-72
2020/12/12 03:20:52;;;;;;;20.35;5.15;;;;;;;10.85;77.98;98817.25;4995026;28;20050;-67
2020/12/12 03:27:47;;;;;;;20.52;4.47;;;;;;;10.86;77.15;98827.09;4995863;28;20057;-65
2020/12/12 03:30:14;;;;;;;16.95;4.20;;;;;;;10.83;77.79;98827.03;4996311;28;20042;-61
2020/12/12 03:32:41;;;;;;;17.35;4.03;;;;;;;10.82;77.82;98839.22;4996688;28;20051;-62
2020/12/12 03:35:08;;;;;;;25.45;4.22;;;;;;;10.90;77.43;98827.19;4995887;28;20057;-62
2020/12/12 03:42:03;;;;;;;23.42;3.95;;;;;;;10.69;77.92;98835.78;4995874;28;20047;-68
2020/12/12 03:44:30;;;;;;;21.40;4.18;;;;;;;10.77;78.23;98836.75;4978465;28;20054;-62
2020/12/12 03:46:57;;;;;;;21.48;4.65;;;;;;;10.86;77.50;98843.63;4977736;28;20054;-62
2020/12/12 03:49:24;;;;;;;16.65;3.88;;;;;;;10.83;77.45;98835.28;4995669;28;20042;-63
2020/12/12 03:56:18;;;;;;;21.33;3.88;;;;;;;10.91;77.10;98851.59;4997333;28;20053;-68
2020/12/12 03:58:45;;;;;;;19.13;3.70;;;;;;;10.70;77.51;98853.91;4996880;28;20054;-65
2020/12/12 04:01:12;;;;;;;22.65;4.28;;;;;;;10.62;78.14;98860.41;4997215;28;20046;-63
2020/12/12 04:03:39;;;;;;;15.95;3.55;;;;;;;10.65;78.68;98865.19;4997814;28;20062;-64
2020/12/12 04:06:06;;;;;;;17.30;3.78;;;;;;;10.85;77.74;98863.28;4997736;28;20050;-66
2020/12/12 04:13:01;;;;;;;18.58;4.10;;;;;;;10.73;78.01;98875.22;4997632;28;20046;-62
2020/12/12 04:15:28;;;;;;;24.55;4.00;;;;;;;10.81;78.10;98874.22;4995700;28;20046;-61
2020/12/12 04:17:55;;;;;;;20.42;3.88;;;;;;;10.66;77.92;98879.75;4995680;28;20057;-65
2020/12/12 04:20:22;;;;;;;15.90;3.55;;;;;;;10.74;77.37;98879.56;4995695;28;20054;-63
2020/12/12 04:27:17;;;;;;;15.60;3.28;;;;;;;10.71;77.58;98899.56;4995126;28;20054;-62
2020/12/12 04:29:44;;;;;;;14.52;3.95;;;;;;;10.79;77.73;98897.78;4995546;28;20057;-64
2020/12/12 04:32:11;;;;;;;17.48;3.65;;;;;;;10.57;78.78;98901.16;4995397;28;20047;-64
2020/12/12 04:34:38;;;;;;;16.85;3.50;;;;;;;10.65;78.15;98905.69;4995418;28;20421;-71
2020/12/12 04:41:34;;;;;;;16.83;3.45;;;;;;;10.47;78.58;98916.28;4995244;28;20038;-62
2020/12/12 04:44:01;;;;;;;15.57;3.05;;;;;;;10.55;79.50;98920.03;4994886;28;20047;-65
2020/12/12 04:46:28;;;;;;;16.65;4.00;;;;;;;10.34;79.01;98925.78;4994428;28;20055;-63
2020/12/12 04:48:56;;;;;;;21.63;3.58;;;;;;;10.48;78.94;98928.88;4994445;28;20065;-62
2020/12/12 04:51:24;;;;;;;13.43;3.10;;;;;;;10.41;79.34;98931.47;4976873;28;20054;-66
2020/12/12 04:58:28;;;;;;;13.88;3.15;;;;;;;10.20;80.01;98936.41;4994704;28;20047;-64
2020/12/12 05:00:56;;;;;;;15.20;3.22;;;;;;;10.16;79.91;98932.78;4974017;28;20428;-65
2020/12/12 05:03:25;;;;;;;12.30;2.90;;;;;;;10.33;79.63;98929.69;4975901;28;20058;-63
2020/12/12 05:05:53;;;;;;;18.73;3.70;;;;;;;10.39;79.11;98935.75;4976075;28;20070;-66
2020/12/12 05:08:20;;;;;;;14.93;2.97;;;;;;;10.36;79.25;98947.44;4975241;28;20394;-64
2020/12/12 05:10:50;;;;;;;18.70;3.60;;;;;;;10.32;78.68;98947.34;4974534;28;20054;-63
2020/12/12 05:13:25;;;;;;;11.52;3.15;;;;;;;10.23;79.39;98950.25;4975503;28;20046;-63
2020/12/12 05:15:54;;;;;;;17.10;2.90;;;;;;;10.55;78.38;98951.06;4975367;28;20058;-70
2020/12/12 05:18:22;;;;;;;15.90;3.75;;;;;;;10.66;77.92;98957.66;4975366;28;20379;-69
2020/12/12 05:20:49;;;;;;;16.88;3.78;;;;;;;10.62;77.50;98962.25;4974919;28;20522;-68
2020/12/12 05:23:21;;;;;;;15.05;3.25;;;;;;;10.52;77.51;98962.81;4974919;28;20046;-63
2020/12/12 05:25:49;;;;;;;16.42;3.10;;;;;;;10.19;78.62;98963.16;4974712;28;20509;-64
2020/12/12 05:28:20;;;;;;;19.95;3.45;;;;;;;10.24;78.98;98975.84;4974753;28;20062;-71
2020/12/12 05:30:49;;;;;;;14.00;3.00;;;;;;;9.71;80.33;98985.34;4975263;28;20483;-69
2020/12/12 05:33:18;;;;;;;13.82;2.42;;;;;;;9.58;81.60;98985.75;4975262;28;20403;-70
2020/12/12 05:35:45;;;;;;;14.73;3.45;;;;;;;9.88;80.63;98989.75;4974144;28;20491;-66
2020/12/12 05:38:15;;;;;;;13.65;2.55;;;;;;;9.72;79.86;98983.41;4975013;28;20055;-70
2020/12/12 05:40:44;;;;;;;19.63;3.25;;;;;;;9.60;81.19;98988.94;4974826;28;20062;-71
2020/12/12 05:43:12;;;;;;;13.52;2.78;;;;;;;9.55;80.93;98994.69;4974459;28;20051;-64
2020/12/12 05:45:41;;;;;;;17.75;3.38;;;;;;;9.48;81.66;99000.78;4989003;28;20047;-64
2020/12/12 05:48:09;;;;;;;16.45;2.92;;;;;;;9.89;80.33;99005.09;4973134;28;20066;-69
2020/12/12 05:50:36;;;;;;;13.30;2.80;;;;;;;10.10;78.98;99003.78;4973935;28;20046;-66
2020/12/12 05:53:05;;;;;;;17.40;3.38;;;;;;;9.94;79.41;99008.41;4973966;28;20059;-64
2020/12/12 05:55:34;;;;;;;14.35;2.60;;;;;;;9.94;80.24;99011.16;4974514;28;20047;-70
2020/12/12 05:58:01;;;;;;;9.13;2.63;;;;;;;9.91;79.90;99016.56;4974362;28;20406;-64
2020/12/12 06:00:29;;;;;;;27.90;4.38;;;;;;;9.85;80.12;99020.72;4977807;28;20057;-62
2020/12/12 06:03:21;;;;;;;15.05;3.28;;;;;;;9.98;79.60;99027.75;4994081;28;20517;-64
2020/12/12 06:05:48;;;;;;;17.75;3.50;;;;;;;9.89;80.32;99025.16;4994829;28;20058;-63
2020/12/12 06:08:34;;;;;;;14.55;3.10;;;;;;;10.36;79.35;99028.06;4982508;28;20057;-63
2020/12/12 06:11:04;;;;;;;16.42;3.20;;;;;;;10.48;78.29;99033.47;4999011;28;20053;-65
2020/12/12 06:13:34;;;;;;;12.77;2.83;;;;;;;10.55;78.29;99036.41;4994454;28;20054;-70
2020/12/12 06:16:03;;;;;;;19.65;4.10;;;;;;;10.50;77.84;99042.19;4993062;28;20053;-70
2020/12/12 06:19:05;;;;;;;17.42;2.88;;;;;;;10.64;77.46;99037.06;4993439;28;20042;-64
2020/12/12 06:21:33;;;;;;;18.85;2.85;;;;;;;10.58;77.74;99046.75;4962457;28;20157;-65
2020/12/12 06:24:00;;;;;;;16.25;2.85;;;;;;;10.26;78.87;99053.34;4993077;28;20058;-68
2020/12/12 06:26:54;;;;;;;18.02;3.13;;;;;;;10.22;79.06;99046.94;4993318;28;20046;-65
2020/12/12 06:29:24;;;;;;;17.75;3.55;;;;;;;10.26;79.32;99058.03;4993365;28;20050;-65
2020/12/12 06:31:54;;;;;;;19.67;3.53;;;;;;;10.32;79.31;99064.91;4976799;28;20046;-62
2020/12/12 06:34:48;;;;;;;19.90;3.28;;;;;;;10.71;78.47;99061.22;4993780;28;20390;-64
2020/12/12 06:41:39;;;;;;;13.75;3.22;;;;;;;10.22;79.06;99076.41;4991986;28;20050;-63
2020/12/12 06:44:06;;;;;;;20.85;2.97;;;;;;;10.13;80.21;99080.09;4991791;28;20050;-71
2020/12/12 06:46:52;;;;;;;11.10;2.55;;;;;;;10.26;79.84;99077.28;4993564;28;20069;-61
2020/12/12 06:49:21;;;;;;;15.57;3.28;;;;;;;10.53;78.72;99091.03;4975452;28;20065;-69
2020/12/12 06:51:53;;;;;;;19.43;3.53;;;;;;;10.60;77.72;99096.72;4993492;28;20047;-64
2020/12/12 06:58:47;;;;;;;15.05;3.63;;;;;;;10.50;78.98;99104.69;4993152;28;20038;-72
2020/12/12 07:01:31;;;;;;;19.70;3.50;;;;;;;10.47;78.88;99099.91;4956921;28;20051;-64
2020/12/12 07:04:03;;;;;;;13.80;3.03;;;;;;;10.41;78.77;99110.34;4973634;28;20069;-61
2020/12/12 07:06:34;;;;;;;18.20;3.78;;;;;;;10.46;79.06;99123.09;4971801;28;20486;-66
2020/12/12 07:13:26;;;;;;;15.30;2.67;;;;;;;10.01;80.62;99137.88;4973885;28;20059;-62
2020/12/12 07:15:54;;;;;;;15.50;3.00;;;;;;;9.98;81.24;99144.09;4974424;28;20043;-63
2020/12/12 07:18:21;;;;;;;14.88;2.92;;;;;;;10.06;81.20;99142.31;4973327;28;20051;-68
2020/12/12 07:20:52;;;;;;;15.95;3.25;;;;;;;10.31;80.12;99146.66;4971729;28;20050;-70
2020/12/12 07:27:43;;;;;;;18.48;3.90;;;;;;;9.69;83.31;99157.31;4982900;28;20053;-68
2020/12/12 07:30:10;;;;;;;18.02;3.50;;;;;;;9.71;83.15;99155.81;4972306;28;20050;-64
2020/12/12 07:32:38;;;;;;;15.43;3.78;;;;;;;9.91;82.56;99163.13;4988901;28;20395;-64
2020/12/12 07:35:05;;;;;;;13.02;3.28;;;;;;;9.73;83.56;99167.25;4977990;28;20070;-70
2020/12/12 07:42:12;;;;;;;12.23;3.00;;;;;;;9.72;83.26;99187.66;4979491;28;20043;-65
2020/12/12 07:44:51;;;;;;;15.75;3.58;;;;;;;10.08;82.76;99190.38;4977883;28;20265;-63
2020/12/12 07:47:18;;;;;;;13.38;2.88;;;;;;;10.15;81.43;99192.53;4977626;28;20046;-64
2020/12/12 07:49:45;;;;;;;13.48;3.00;;;;;;;10.20;81.49;99193.13;4979805;28;20046;-62
2020/12/12 07:52:13;;;;;;;15.73;3.70;;;;;;;10.05;81.66;99199.31;4995082;28;20087;-71
2020/12/12 07:59:19;;;;;;;16.80;3.15;;;;;;;10.20;80.91;99217.06;4979547;28;20043;-61
2020/12/12 08:01:49;;;;;;;;;;;;;;;10.20;81.04;99219.81;4979136;28;20054;-66
2020/12/12 08:04:23;;;;;;;14.23;3.20;;;;;;;10.14;81.08;99221.22;4977651;28;19998;-64
2020/12/12 08:06:51;;;;;;;13.20;3.72;;;;;;;10.06;81.74;99228.41;4978833;28;20058;-63
2020/12/12 08:09:22;;;;;;;13.25;3.78;;;;;;;10.03;82.53;99236.56;4979006;28;20070;-77
2020/12/12 08:12:01;;;;;;;15.30;3.30;;;;;;;10.24;82.31;99242.75;4978788;28;20047;-76
2020/12/12 08:14:30;;;;;;;12.57;3.88;;;;;;;10.04;81.90;99238.97;4977166;28;20054;-76
2020/12/12 08:17:00;;;;;;;11.43;3.30;;;;;;;9.80;83.21;99238.16;4977677;28;20062;-74
2020/12/12 08:19:30;;;;;;;18.13;4.13;;;;;;;10.17;82.71;99242.53;4978449;28;20390;-74
2020/12/12 08:22:07;;;;;;;15.80;3.75;;;;;;;10.08;82.33;99245.41;4995851;28;20049;-74
2020/12/12 08:24:35;;;;;;;14.15;3.88;;;;;;;10.05;82.23;99251.59;4992678;28;20054;-72
2020/12/12 08:27:09;;;;;;;10.18;3.75;;;;;;;10.40;82.24;99248.34;4976615;28;20058;-76
2020/12/12 08:29:43;;;;;;;14.48;4.22;;;;;;;10.40;81.20;99262.91;4976044;28;20065;-73
2020/12/12 08:32:28;;;;;;;12.27;4.45;;;;;;;10.37;81.08;99266.34;4989357;28;20406;-75
2020/12/12 08:35:07;;;;;;;16.38;4.10;;;;;;;10.04;82.41;99277.47;4975806;28;20054;-74
2020/12/12 08:37:34;;;;;;;10.75;3.53;;;;;;;10.20;83.95;99275.66;4977364;28;20054;-70
2020/12/12 08:40:12;;;;;;;16.67;4.55;;;;;;;10.35;82.65;99285.16;4975253;28;20065;-72
2020/12/12 08:42:39;;;;;;;15.80;4.93;;;;;;;10.45;82.11;99294.88;4975253;28;20047;-64
2020/12/12 08:45:17;;;;;;;12.57;4.47;;;;;;;10.77;81.53;99305.72;4974672;28;20161;-65
2020/12/12 08:47:44;;;;;;;15.38;4.38;;;;;;;10.35;80.90;99311.88;4975098;28;20055;-64
2020/12/12 08:50:11;;;;;;;19.90;5.13;;;;;;;10.31;82.49;99311.75;4975434;28;20054;-64
2020/12/12 08:52:40;;;;;;;18.08;4.65;;;;;;;10.10;82.56;99319.34;4974997;28;20050;-66
2020/12/12 08:55:11;;;;;;;10.75;4.72;;;;;;;10.02;83.33;99331.25;4974812;28;20047;-63
2020/12/12 08:57:38;;;;;;;16.42;5.45;;;;;;;9.90;84.06;99334.75;4974855;28;20058;-63
2020/12/12 09:00:06;;;;;;;13.10;5.18;;;;;;;9.96;84.67;99341.66;4974594;28;20061;-64
2020/12/12 09:02:33;;;;;;;18.13;5.85;;;;;;;10.09;84.06;99337.00;4994438;28;20055;-65
2020/12/12 09:05:07;;;;;;;14.02;4.60;;;;;;;10.08;83.65;99338.94;4994589;28;20058;-64
2020/12/12 09:07:36;;;;;;;15.48;5.28;;;;;;;10.03;83.76;99339.16;4994487;28;20050;-64
2020/12/12 09:10:13;;;;;;;15.23;4.57;;;;;;;10.15;82.81;99346.63;4993815;28;20054;-63
2020/12/12 09:12:49;;;;;;;13.30;4.63;;;;;;;10.17;83.42;99345.16;4977084;28;20050;-62
2020/12/12 09:15:16;;;;;;;18.80;4.50;;;;;;;10.04;83.43;99357.25;4976072;28;20065;-69
2020/12/12 09:17:58;;;;;;;14.30;4.68;;;;;;;10.28;83.06;99355.69;4993423;28;20505;-63
2020/12/12 09:20:25;;;;;;;12.65;4.60;;;;;;;10.39;82.29;99365.09;4993369;28;20057;-66
2020/12/12 09:22:52;;;;;;;18.50;4.05;;;;;;;10.48;81.74;99374.81;4992695;28;20054;-65
2020/12/12 09:25:19;;;;;;;16.30;4.68;;;;;;;10.36;81.59;99372.06;4975608;28;20422;-65
2020/12/12 09:27:46;;;;;;;12.63;3.88;;;;;;;10.20;82.38;99379.41;4992977;28;20482;-67
2020/12/12 09:30:13;;;;;;;14.05;4.40;;;;;;;10.30;82.25;99390.00;4991240;28;20054;-67
2020/12/12 09:32:42;;;;;;;10.13;4.35;;;;;;;10.55;81.23;99404.56;4993015;28;20057;-64
2020/12/12 09:35:12;;;;;;;13.63;4.53;;;;;;;10.34;82.10;99401.09;4976936;28;20402;-62
2020/12/12 09:37:39;;;;;;;14.73;4.90;;;;;;;10.42;82.33;99409.25;4992234;28;20046;-70
2020/12/12 09:40:06;;;;;;;9.77;4.57;;;;;;;10.23;82.74;99409.78;4992312;28;20057;-71
2020/12/12 09:42:34;;;;;;;15.52;4.78;;;;;;;10.40;82.72;99414.28;4992832;28;20057;-69
2020/12/12 09:45:01;;;;;;;16.20;5.30;;;;;;;10.36;82.86;99413.38;4993627;28;20494;-67
2020/12/12 09:47:28;;;;;;;11.98;5.53;;;;;;;10.57;82.42;99419.56;4993250;28;20050;-67
2020/12/12 09:49:55;;;;;;;13.43;5.82;;;;;;;10.41;82.04;99432.41;4994070;28;20073;-67
2020/12/12 09:52:22;;;;;;;11.80;5.15;;;;;;;10.52;82.38;99441.00;4995826;28;20046;-69
2020/12/12 09:54:49;;;;;;;14.00;5.93;;;;;;;10.66;82.36;99446.97;4993482;28;20406;-64
2020/12/12 09:57:16;;;;;;;14.93;5.40;;;;;;;10.86;80.61;99441.34;4993203;28;20065;-71
2020/12/12 09:59:42;;;;;;;15.48;5.25;;;;;;;10.76;80.80;99454.78;4994920;28;20042;-69
2020/12/12 10:02:09;;;;;;;13.93;5.63;;;;;;;10.67;81.09;99460.41;4995930;28;20521;-68
2020/12/12 10:04:36;;;;;;;12.73;5.88;;;;;;;10.60;81.84;99454.66;4995716;28;20050;-71
2020/12/12 10:07:03;;;;;;;12.98;5.82;;;;;;;10.81;80.66;99458.09;4994715;28;20042;-69
2020/12/12 10:09:30;;;;;;;12.52;6.18;;;;;;;10.33;82.64;99458.09;4993189;28;20393;-65
2020/12/12 10:11:57;;;;;;;13.40;6.20;;;;;;;10.53;82.32;99462.69;4992504;28;20478;-64
2020/12/12 10:14:24;;;;;;;16.17;6.00;;;;;;;10.70;81.34;99468.00;4992994;28;20050;-69
2020/12/12 10:16:54;;;;;;;15.43;5.55;;;;;;;10.36;81.33;99473.91;4992072;28;20046;-64
2020/12/12 10:19:24;;;;;;;12.43;5.72;;;;;;;10.41;81.74;99470.94;4993827;28;20398;-69
2020/12/12 10:21:51;;;;;;;18.83;6.95;;;;;;;10.68;80.97;99480.50;4992074;28;20046;-71
2020/12/12 10:24:18;;;;;;;13.90;6.60;;;;;;;10.65;80.51;99479.22;4991801;28;20498;-71
2020/12/12 10:26:47;;;;;;;15.50;7.20;;;;;;;10.89;79.89;99484.75;4992068;28;20487;-73
2020/12/12 10:29:14;;;;;;;17.60;7.25;;;;;;;10.42;80.81;99475.31;4986538;28;20065;-72
2020/12/12 10:31:41;;;;;;;17.65;7.65;;;;;;;10.31;81.79;99490.66;4992597;28;20057;-71
2020/12/12 10:34:08;;;;;;;16.42;7.70;;;;;;;10.52;81.63;99476.81;4991810;28;20058;-72
2020/12/12 10:36:37;;;;;;;15.18;7.70;;;;;;;10.57;80.51;99496.66;4991907;28;20394;-68
2020/12/12 10:39:09;;;;;;;14.45;8.43;;;;;;;10.61;81.05;99494.84;4975176;28;20482;-68
2020/12/12 10:46:06;;;;;;;14.30;7.47;;;;;;;11.07;81.42;99516.41;4991428;28;20066;-63
2020/12/12 10:48:36;;;;;;;16.33;7.63;;;;;;;11.28;80.42;99503.28;4990895;28;20402;-63
2020/12/12 10:51:03;;;;;;;14.00;6.40;;;;;;;11.42;79.53;99499.38;4990229;28;20065;-64
2020/12/12 10:53:30;;;;;;;15.98;6.43;;;;;;;11.71;78.22;99494.34;4972430;28;20063;-64
2020/12/12 11:00:25;;;;;;;18.67;6.38;;;;;;;11.18;77.89;99525.00;4991231;28;20058;-64
2020/12/12 11:02:52;;;;;;;13.77;6.38;;;;;;;11.11;78.72;99520.06;4991796;28;20050;-64
2020/12/12 11:05:20;;;;;;;12.73;7.13;;;;;;;11.30;79.85;99512.00;4989936;28;20065;-68
2020/12/12 11:07:52;;;;;;;14.93;7.22;;;;;;;11.02;78.71;99516.63;4990561;28;20050;-66
2020/12/12 11:10:21;;;;;;;;;;;;;;;11.38;79.39;99516.56;4996133;28;20061;-67
2020/12/12 11:12:49;;;;;;;15.07;6.63;;;;;;;11.19;78.34;99518.34;4995358;28;19925;-74
2020/12/12 11:15:17;;;;;;;18.58;6.50;;;;;;;11.46;79.18;99527.81;4995543;28;20087;-71
2020/12/12 11:17:44;;;;;;;13.32;5.55;;;;;;;11.26;77.85;99524.09;4995976;28;20097;-77
2020/12/12 11:20:15;;;;;;;9.95;5.75;;;;;;;11.34;77.00;99525.91;4994358;28;20053;-74
2020/12/12 11:22:42;;;;;;;12.43;5.40;;;;;;;11.45;76.80;99529.00;4993168;28;20058;-76
2020/12/12 11:25:10;;;;;;;13.43;5.13;;;;;;;11.20;77.46;99537.28;4993976;28;20054;-70
2020/12/12 11:27:39;;;;;;;10.88;5.43;;;;;;;11.29;77.11;99529.72;4991334;28;20050;-63
2020/12/12 11:30:11;;;;;;;13.00;5.63;;;;;;;11.61;75.80;99541.69;4990536;28;20077;-66
2020/12/12 11:32:40;;;;;;;14.10;5.13;;;;;;;11.29;76.43;99548.19;4993491;28;20080;-70
2020/12/12 11:35:15;;;;;;;15.07;5.57;;;;;;;11.18;76.98;99545.09;4975946;28;20061;-63
2020/12/12 11:48:51;;;;;;;19.90;6.88;;;;;;;11.26;77.99;99571.72;4994264;28;20069;-64
2020/12/12 11:51:17;;;;;;;20.60;6.95;;;;;;;11.41;76.62;99569.44;4993347;28;20520;-65
2020/12/12 11:53:45;;;;;;;17.92;5.22;;;;;;;11.15;76.91;99573.38;4994068;28;20061;-66
2020/12/12 11:56:16;;;;;;;16.05;6.22;;;;;;;11.17;77.36;99575.78;4991318;28;20477;-64
2020/12/12 11:58:43;;;;;;;18.02;5.97;;;;;;;11.09;77.91;99574.72;4994102;28;20042;-65
2020/12/12 12:01:26;;;;;;;18.73;6.38;;;;;;;11.49;77.26;99572.06;4974917;28;20398;-64
2020/12/12 12:03:54;;;;;;;17.02;5.50;;;;;;;11.44;76.75;99593.56;4974472;28;20051;-62
2020/12/12 12:06:22;;;;;;;12.82;5.10;;;;;;;11.40;76.78;99593.47;4976196;28;20050;-64
2020/12/12 12:11:30;;;;;;;18.02;5.88;;;;;;;11.88;75.22;99598.09;4976170;28;20055;-63
2020/12/12 12:14:06;;;;;;;12.63;4.97;;;;;;;12.00;74.86;99600.81;4974415;28;20065;-65
2020/12/12 12:16:38;;;;;;;15.43;5.82;;;;;;;11.85;73.84;99604.31;4974636;28;20483;-61
2020/12/12 12:19:15;;;;;;;14.23;4.50;;;;;;;11.63;74.71;99607.56;4972950;28;20050;-64
2020/12/12 12:21:46;;;;;;;13.10;5.55;;;;;;;11.80;74.64;99605.34;4974910;28;20051;-64
2020/12/12 12:24:15;;;;;;;15.73;4.82;;;;;;;11.61;75.58;99609.84;4975544;28;20051;-67
2020/12/12 12:26:49;;;;;;;14.57;4.47;;;;;;;11.65;75.44;99608.84;4974882;28;20487;-63
2020/12/12 12:29:18;;;;;;;15.93;5.50;;;;;;;12.09;75.32;99615.28;4973951;28;20051;-64
2020/12/12 12:31:46;;;;;;;15.40;5.15;;;;;;;11.65;75.95;99622.63;4974728;28;20074;-65
2020/12/12 12:34:14;;;;;;;14.15;5.05;;;;;;;11.52;76.32;99621.00;4974485;28;20047;-63
2020/12/12 12:36:42;;;;;;;14.15;5.22;;;;;;;11.66;75.84;99629.78;4975167;28;20399;-66
2020/12/12 12:39:10;;;;;;;12.10;4.93;;;;;;;11.19;77.73;99623.09;4975103;28;20069;-66
2020/12/12 12:41:37;;;;;;;24.13;5.50;;;;;;;11.21;78.22;99623.53;4974451;28;20055;-65
2020/12/12 12:44:05;;;;;;;15.57;4.57;;;;;;;10.95;79.12;99637.63;4974608;28;20055;-66
2020/12/12 12:46:35;;;;;;;9.82;4.18;;;;;;;11.30;80.72;99630.53;4989532;28;20061;-67
2020/12/12 12:49:03;;;;;;;12.38;4.10;;;;;;;11.37;78.78;99641.00;4973795;28;20047;-66
2020/12/12 12:51:30;;;;;;;8.02;3.58;;;;;;;11.29;77.91;99645.50;4974518;28;20059;-73
2020/12/12 12:53:56;;;;;;;8.18;3.80;;;;;;;10.94;79.84;99649.00;4973554;28;20069;-64
2020/12/12 12:56:24;;;;;;;11.73;4.55;;;;;;;11.01;81.21;99647.28;4974153;28;20234;-67
2020/12/12 12:58:52;;;;;;;10.90;4.82;;;;;;;11.07;80.21;99653.41;4972428;28;20070;-63
2020/12/12 13:01:23;;;;;;;14.80;4.00;;;;;;;11.44;82.12;99646.75;4984735;28;20055;-62
2020/12/12 13:03:53;;;;;;;10.98;3.58;;;;;;;11.01;80.27;99661.06;4976506;28;20046;-66
2020/12/12 13:06:24;;;;;;;8.43;3.60;;;;;;;10.80;82.13;99671.34;4993398;28;20057;-63
2020/12/12 13:09:09;;;;;;;8.90;3.10;;;;;;;10.49;83.69;99672.97;4992911;28;20051;-64
2020/12/12 13:11:36;;;;;;;6.97;3.03;;;;;;;10.55;84.58;99663.38;4993901;28;20050;-63
2020/12/12 13:14:03;;;;;;;6.03;2.97;;;;;;;10.71;83.33;99667.88;4993206;28;20042;-63